sensor_id;sensor_type;location;lat;lon;timestamp;P1;durP1;ratioP1;P2;durP2;ratioP2
14472;SDS011;7322;50.872;4.386;2022-09-09T00:00:24;4.87;;;1.30;;
14472;SDS011;7322;50.872;4.386;2022-09-09T00:02:54;4.53;;;1.50;;
14472;SDS011;7322;50.872;4.386;2022-09-09T00:05:29;6.53;;;1.47;;
14472;SDS011;7322;50.872;4.386;2022-09-09T00:08:00;4.93;;;1.40;;
14472;SDS011;7322;50.872;4.386;2022-09-09T00:10:32;4.67;;;1.40;;
14472;SDS011;7322;50.872;4.386;2022-09-09T00:13:09;3.87;;;1.40;;
14472;SDS011;7322;50.872;4.386;2022-09-09T00:15:52;4.30;;;1.40;;
14472;SDS011;7322;50.872;4.386;2022-09-09T00:18:27;4.93;;;1.47;;
14472;SDS011;7322;50.872;4.386;2022-09-09T00:21:11;3.93;;;1.30;;
14472;SDS011;7322;50.872;4.386;2022-09-09T00:23:42;4.30;;;1.60;;
14472;SDS011;7322;50.872;4.386;2022-09-09T00:26:14;5.00;;;1.40;;
14472;SDS011;7322;50.872;4.386;2022-09-09T00:28:50;5.50;;;1.37;;
14472;SDS011;7322;50.872;4.386;2022-09-09T00:31:26;6.33;;;1.70;;
14472;SDS011;7322;50.872;4.386;2022-09-09T00:33:56;5.03;;;1.60;;
14472;SDS011;7322;50.872;4.386;2022-09-09T00:36:30;4.63;;;1.60;;
14472;SDS011;7322;50.872;4.386;2022-09-09T00:39:00;5.13;;;1.53;;
14472;SDS011;7322;50.872;4.386;2022-09-09T00:41:31;4.17;;;1.60;;
14472;SDS011;7322;50.872;4.386;2022-09-09T00:44:10;4.13;;;1.40;;
14472;SDS011;7322;50.872;4.386;2022-09-09T00:46:50;4.37;;;1.60;;
14472;SDS011;7322;50.872;4.386;2022-09-09T00:49:30;5.97;;;1.67;;
14472;SDS011;7322;50.872;4.386;2022-09-09T00:52:10;5.10;;;1.60;;
14472;SDS011;7322;50.872;4.386;2022-09-09T00:54:48;6.07;;;1.60;;
14472;SDS011;7322;50.872;4.386;2022-09-09T00:57:25;5.23;;;1.40;;
14472;SDS011;7322;50.872;4.386;2022-09-09T01:00:15;5.13;;;1.70;;
14472;SDS011;7322;50.872;4.386;2022-09-09T01:02:50;4.77;;;1.50;;
14472;SDS011;7322;50.872;4.386;2022-09-09T01:05:25;5.67;;;1.50;;
14472;SDS011;7322;50.872;4.386;2022-09-09T01:08:00;4.27;;;1.30;;
14472;SDS011;7322;50.872;4.386;2022-09-09T01:10:34;5.00;;;1.40;;
14472;SDS011;7322;50.872;4.386;2022-09-09T01:18:31;3.57;;;1.13;;
14472;SDS011;7322;50.872;4.386;2022-09-09T01:21:19;5.23;;;1.40;;
14472;SDS011;7322;50.872;4.386;2022-09-09T01:24:01;5.17;;;1.40;;
14472;SDS011;7322;50.872;4.386;2022-09-09T01:26:43;4.07;;;1.60;;
14472;SDS011;7322;50.872;4.386;2022-09-09T01:29:11;3.23;;;1.33;;
14472;SDS011;7322;50.872;4.386;2022-09-09T01:31:41;4.57;;;1.37;;
14472;SDS011;7322;50.872;4.386;2022-09-09T01:34:17;5.10;;;1.30;;
14472;SDS011;7322;50.872;4.386;2022-09-09T01:36:46;4.53;;;1.40;;
14472;SDS011;7322;50.872;4.386;2022-09-09T01:39:18;8.50;;;2.17;;
14472;SDS011;7322;50.872;4.386;2022-09-09T01:41:47;5.57;;;1.43;;
14472;SDS011;7322;50.872;4.386;2022-09-09T01:44:15;7.00;;;1.80;;
14472;SDS011;7322;50.872;4.386;2022-09-09T01:46:43;6.43;;;1.57;;
14472;SDS011;7322;50.872;4.386;2022-09-09T01:49:10;3.93;;;1.60;;
14472;SDS011;7322;50.872;4.386;2022-09-09T01:51:39;6.80;;;1.87;;
14472;SDS011;7322;50.872;4.386;2022-09-09T01:54:08;6.17;;;1.90;;
14472;SDS011;7322;50.872;4.386;2022-09-09T01:56:37;6.27;;;1.80;;
14472;SDS011;7322;50.872;4.386;2022-09-09T01:59:18;6.83;;;1.93;;
14472;SDS011;7322;50.872;4.386;2022-09-09T02:01:57;12.63;;;2.60;;
14472;SDS011;7322;50.872;4.386;2022-09-09T02:04:36;8.20;;;1.93;;
14472;SDS011;7322;50.872;4.386;2022-09-09T02:07:09;4.57;;;1.90;;
14472;SDS011;7322;50.872;4.386;2022-09-09T02:09:46;5.40;;;1.97;;
14472;SDS011;7322;50.872;4.386;2022-09-09T02:12:18;6.97;;;1.67;;
14472;SDS011;7322;50.872;4.386;2022-09-09T02:14:52;7.57;;;2.10;;
14472;SDS011;7322;50.872;4.386;2022-09-09T02:17:25;7.87;;;1.80;;
14472;SDS011;7322;50.872;4.386;2022-09-09T02:19:56;7.47;;;2.10;;
14472;SDS011;7322;50.872;4.386;2022-09-09T02:22:29;5.70;;;2.20;;
14472;SDS011;7322;50.872;4.386;2022-09-09T02:25:00;7.70;;;1.90;;
14472;SDS011;7322;50.872;4.386;2022-09-09T02:27:30;7.07;;;2.10;;
14472;SDS011;7322;50.872;4.386;2022-09-09T02:29:59;6.60;;;1.90;;
14472;SDS011;7322;50.872;4.386;2022-09-09T02:32:28;5.93;;;1.87;;
14472;SDS011;7322;50.872;4.386;2022-09-09T02:34:57;9.67;;;2.30;;
14472;SDS011;7322;50.872;4.386;2022-09-09T02:37:31;6.67;;;2.20;;
14472;SDS011;7322;50.872;4.386;2022-09-09T02:40:02;7.53;;;2.50;;
14472;SDS011;7322;50.872;4.386;2022-09-09T02:42:30;8.43;;;2.33;;
14472;SDS011;7322;50.872;4.386;2022-09-09T02:44:58;6.53;;;2.33;;
14472;SDS011;7322;50.872;4.386;2022-09-09T02:47:26;6.23;;;2.30;;
14472;SDS011;7322;50.872;4.386;2022-09-09T02:50:02;7.80;;;1.67;;
14472;SDS011;7322;50.872;4.386;2022-09-09T02:52:37;10.73;;;2.17;;
14472;SDS011;7322;50.872;4.386;2022-09-09T02:55:14;8.20;;;2.20;;
14472;SDS011;7322;50.872;4.386;2022-09-09T02:57:44;8.33;;;2.07;;
14472;SDS011;7322;50.872;4.386;2022-09-09T03:00:15;9.47;;;2.37;;
14472;SDS011;7322;50.872;4.386;2022-09-09T03:02:42;8.50;;;2.10;;
14472;SDS011;7322;50.872;4.386;2022-09-09T03:05:10;7.67;;;2.27;;
14472;SDS011;7322;50.872;4.386;2022-09-09T03:07:38;11.57;;;2.30;;
14472;SDS011;7322;50.872;4.386;2022-09-09T03:10:07;9.60;;;2.20;;
14472;SDS011;7322;50.872;4.386;2022-09-09T03:12:35;9.07;;;2.23;;
14472;SDS011;7322;50.872;4.386;2022-09-09T03:15:04;7.80;;;2.23;;
14472;SDS011;7322;50.872;4.386;2022-09-09T03:17:33;10.47;;;2.33;;
14472;SDS011;7322;50.872;4.386;2022-09-09T03:20:00;6.57;;;1.90;;
14472;SDS011;7322;50.872;4.386;2022-09-09T03:22:28;12.60;;;2.70;;
14472;SDS011;7322;50.872;4.386;2022-09-09T03:24:55;13.80;;;2.50;;
14472;SDS011;7322;50.872;4.386;2022-09-09T03:27:22;7.80;;;2.20;;
14472;SDS011;7322;50.872;4.386;2022-09-09T03:29:49;8.00;;;2.23;;
14472;SDS011;7322;50.872;4.386;2022-09-09T03:32:16;10.07;;;2.17;;
14472;SDS011;7322;50.872;4.386;2022-09-09T03:34:45;9.77;;;2.17;;
14472;SDS011;7322;50.872;4.386;2022-09-09T03:37:12;7.93;;;2.20;;
14472;SDS011;7322;50.872;4.386;2022-09-09T03:39:39;10.53;;;2.50;;
14472;SDS011;7322;50.872;4.386;2022-09-09T03:42:06;7.50;;;2.40;;
14472;SDS011;7322;50.872;4.386;2022-09-09T03:44:35;8.80;;;2.47;;
14472;SDS011;7322;50.872;4.386;2022-09-09T03:47:04;7.27;;;1.90;;
14472;SDS011;7322;50.872;4.386;2022-09-09T03:49:45;8.90;;;2.60;;
14472;SDS011;7322;50.872;4.386;2022-09-09T03:54:43;9.13;;;2.40;;
14472;SDS011;7322;50.872;4.386;2022-09-09T03:57:10;7.23;;;2.40;;
14472;SDS011;7322;50.872;4.386;2022-09-09T03:59:38;7.93;;;2.50;;
14472;SDS011;7322;50.872;4.386;2022-09-09T04:02:05;8.33;;;2.40;;
14472;SDS011;7322;50.872;4.386;2022-09-09T04:04:34;10.00;;;2.40;;
14472;SDS011;7322;50.872;4.386;2022-09-09T04:09:51;5.70;;;2.30;;
14472;SDS011;7322;50.872;4.386;2022-09-09T04:12:18;9.60;;;2.70;;
14472;SDS011;7322;50.872;4.386;2022-09-09T04:14:45;11.57;;;3.00;;
14472;SDS011;7322;50.872;4.386;2022-09-09T04:17:24;8.13;;;2.10;;
14472;SDS011;7322;50.872;4.386;2022-09-09T04:19:54;9.10;;;2.67;;
14472;SDS011;7322;50.872;4.386;2022-09-09T04:22:29;11.13;;;2.90;;
14472;SDS011;7322;50.872;4.386;2022-09-09T04:27:57;11.33;;;2.53;;
14472;SDS011;7322;50.872;4.386;2022-09-09T04:30:26;9.03;;;2.50;;
14472;SDS011;7322;50.872;4.386;2022-09-09T04:35:36;9.87;;;2.87;;
14472;SDS011;7322;50.872;4.386;2022-09-09T04:38:11;15.40;;;3.30;;
14472;SDS011;7322;50.872;4.386;2022-09-09T04:40:41;10.67;;;2.70;;
14472;SDS011;7322;50.872;4.386;2022-09-09T04:43:09;9.57;;;2.73;;
14472;SDS011;7322;50.872;4.386;2022-09-09T04:45:37;9.03;;;2.50;;
14472;SDS011;7322;50.872;4.386;2022-09-09T04:48:11;7.00;;;2.70;;
14472;SDS011;7322;50.872;4.386;2022-09-09T04:53:35;11.17;;;2.97;;
14472;SDS011;7322;50.872;4.386;2022-09-09T04:56:03;8.50;;;2.60;;
14472;SDS011;7322;50.872;4.386;2022-09-09T04:58:32;8.83;;;2.87;;
14472;SDS011;7322;50.872;4.386;2022-09-09T05:01:04;12.37;;;2.93;;
14472;SDS011;7322;50.872;4.386;2022-09-09T05:03:38;7.63;;;2.90;;
14472;SDS011;7322;50.872;4.386;2022-09-09T05:06:07;8.77;;;2.93;;
14472;SDS011;7322;50.872;4.386;2022-09-09T05:08:37;8.37;;;2.80;;
14472;SDS011;7322;50.872;4.386;2022-09-09T05:11:12;9.43;;;3.00;;
14472;SDS011;7322;50.872;4.386;2022-09-09T05:13:43;11.23;;;3.10;;
14472;SDS011;7322;50.872;4.386;2022-09-09T05:16:11;13.43;;;3.47;;
14472;SDS011;7322;50.872;4.386;2022-09-09T05:18:38;8.13;;;2.70;;
14472;SDS011;7322;50.872;4.386;2022-09-09T05:21:06;8.20;;;2.63;;
14472;SDS011;7322;50.872;4.386;2022-09-09T05:23:34;10.07;;;3.00;;
14472;SDS011;7322;50.872;4.386;2022-09-09T05:26:04;13.33;;;2.87;;
14472;SDS011;7322;50.872;4.386;2022-09-09T05:28:33;14.40;;;3.17;;
14472;SDS011;7322;50.872;4.386;2022-09-09T05:31:02;10.87;;;2.90;;
14472;SDS011;7322;50.872;4.386;2022-09-09T05:33:30;9.27;;;2.30;;
14472;SDS011;7322;50.872;4.386;2022-09-09T05:35:58;12.53;;;3.63;;
14472;SDS011;7322;50.872;4.386;2022-09-09T05:38:26;11.10;;;2.70;;
14472;SDS011;7322;50.872;4.386;2022-09-09T05:40:55;13.13;;;3.97;;
14472;SDS011;7322;50.872;4.386;2022-09-09T05:43:22;10.07;;;2.83;;
14472;SDS011;7322;50.872;4.386;2022-09-09T05:45:58;10.17;;;3.00;;
14472;SDS011;7322;50.872;4.386;2022-09-09T05:48:27;15.33;;;3.30;;
14472;SDS011;7322;50.872;4.386;2022-09-09T05:50:56;10.03;;;3.40;;
14472;SDS011;7322;50.872;4.386;2022-09-09T05:53:23;11.93;;;3.23;;
14472;SDS011;7322;50.872;4.386;2022-09-09T05:58:27;8.37;;;3.07;;
14472;SDS011;7322;50.872;4.386;2022-09-09T06:01:05;13.73;;;3.23;;
14472;SDS011;7322;50.872;4.386;2022-09-09T06:09:24;13.03;;;2.63;;
14472;SDS011;7322;50.872;4.386;2022-09-09T06:11:53;15.87;;;3.63;;
14472;SDS011;7322;50.872;4.386;2022-09-09T06:16:56;11.27;;;2.67;;
14472;SDS011;7322;50.872;4.386;2022-09-09T06:19:29;11.20;;;2.90;;
14472;SDS011;7322;50.872;4.386;2022-09-09T06:21:56;12.57;;;2.80;;
14472;SDS011;7322;50.872;4.386;2022-09-09T06:24:24;11.47;;;2.73;;
14472;SDS011;7322;50.872;4.386;2022-09-09T06:26:52;8.57;;;3.13;;
14472;SDS011;7322;50.872;4.386;2022-09-09T06:29:19;9.60;;;2.50;;
14472;SDS011;7322;50.872;4.386;2022-09-09T06:31:46;7.93;;;2.30;;
14472;SDS011;7322;50.872;4.386;2022-09-09T06:34:13;10.87;;;2.73;;
14472;SDS011;7322;50.872;4.386;2022-09-09T06:36:40;9.03;;;2.73;;
14472;SDS011;7322;50.872;4.386;2022-09-09T06:39:07;8.77;;;2.50;;
14472;SDS011;7322;50.872;4.386;2022-09-09T06:41:36;13.77;;;3.63;;
14472;SDS011;7322;50.872;4.386;2022-09-09T06:44:05;9.30;;;2.77;;
14472;SDS011;7322;50.872;4.386;2022-09-09T06:46:32;10.50;;;3.03;;
14472;SDS011;7322;50.872;4.386;2022-09-09T06:49:00;11.07;;;2.57;;
14472;SDS011;7322;50.872;4.386;2022-09-09T06:51:28;15.33;;;3.63;;
14472;SDS011;7322;50.872;4.386;2022-09-09T06:53:56;11.83;;;3.40;;
14472;SDS011;7322;50.872;4.386;2022-09-09T06:56:25;10.70;;;2.70;;
14472;SDS011;7322;50.872;4.386;2022-09-09T06:58:53;11.23;;;2.90;;
14472;SDS011;7322;50.872;4.386;2022-09-09T07:01:25;10.03;;;2.50;;
14472;SDS011;7322;50.872;4.386;2022-09-09T07:03:54;10.43;;;3.20;;
14472;SDS011;7322;50.872;4.386;2022-09-09T07:06:24;11.47;;;2.77;;
14472;SDS011;7322;50.872;4.386;2022-09-09T07:08:52;13.40;;;3.10;;
14472;SDS011;7322;50.872;4.386;2022-09-09T07:11:20;11.77;;;3.43;;
14472;SDS011;7322;50.872;4.386;2022-09-09T07:13:50;8.33;;;2.67;;
14472;SDS011;7322;50.872;4.386;2022-09-09T07:16:18;9.27;;;2.70;;
14472;SDS011;7322;50.872;4.386;2022-09-09T07:18:49;7.50;;;2.70;;
14472;SDS011;7322;50.872;4.386;2022-09-09T07:21:17;9.83;;;2.80;;
14472;SDS011;7322;50.872;4.386;2022-09-09T07:23:46;7.83;;;2.20;;
14472;SDS011;7322;50.872;4.386;2022-09-09T07:26:14;8.43;;;2.63;;
14472;SDS011;7322;50.872;4.386;2022-09-09T07:28:42;9.63;;;2.50;;
14472;SDS011;7322;50.872;4.386;2022-09-09T07:31:12;9.20;;;2.40;;
14472;SDS011;7322;50.872;4.386;2022-09-09T07:33:41;9.77;;;2.60;;
14472;SDS011;7322;50.872;4.386;2022-09-09T07:36:12;9.77;;;2.57;;
14472;SDS011;7322;50.872;4.386;2022-09-09T07:38:41;10.37;;;2.73;;
14472;SDS011;7322;50.872;4.386;2022-09-09T07:41:11;9.57;;;2.70;;
14472;SDS011;7322;50.872;4.386;2022-09-09T07:43:39;6.83;;;2.10;;
14472;SDS011;7322;50.872;4.386;2022-09-09T07:46:07;9.33;;;2.47;;
14472;SDS011;7322;50.872;4.386;2022-09-09T07:48:35;8.07;;;2.40;;
14472;SDS011;7322;50.872;4.386;2022-09-09T07:51:07;6.90;;;2.30;;
14472;SDS011;7322;50.872;4.386;2022-09-09T07:53:38;8.70;;;2.80;;
14472;SDS011;7322;50.872;4.386;2022-09-09T07:56:05;6.17;;;2.40;;
14472;SDS011;7322;50.872;4.386;2022-09-09T07:58:34;7.30;;;2.30;;
14472;SDS011;7322;50.872;4.386;2022-09-09T08:01:05;5.47;;;2.20;;
14472;SDS011;7322;50.872;4.386;2022-09-09T08:03:36;6.03;;;2.20;;
14472;SDS011;7322;50.872;4.386;2022-09-09T08:06:05;7.87;;;2.30;;
14472;SDS011;7322;50.872;4.386;2022-09-09T08:08:35;10.67;;;2.60;;
14472;SDS011;7322;50.872;4.386;2022-09-09T08:11:09;10.47;;;2.67;;
14472;SDS011;7322;50.872;4.386;2022-09-09T08:13:38;8.70;;;2.23;;
14472;SDS011;7322;50.872;4.386;2022-09-09T08:16:06;8.33;;;2.73;;
14472;SDS011;7322;50.872;4.386;2022-09-09T08:18:35;9.23;;;2.50;;
14472;SDS011;7322;50.872;4.386;2022-09-09T08:21:06;6.23;;;1.80;;
14472;SDS011;7322;50.872;4.386;2022-09-09T08:23:39;6.70;;;2.00;;
14472;SDS011;7322;50.872;4.386;2022-09-09T08:26:09;10.77;;;2.50;;
14472;SDS011;7322;50.872;4.386;2022-09-09T08:28:37;9.20;;;2.40;;
14472;SDS011;7322;50.872;4.386;2022-09-09T08:31:06;7.87;;;2.23;;
14472;SDS011;7322;50.872;4.386;2022-09-09T08:33:34;7.33;;;2.27;;
14472;SDS011;7322;50.872;4.386;2022-09-09T08:36:09;7.43;;;2.33;;
14472;SDS011;7322;50.872;4.386;2022-09-09T08:38:39;9.53;;;2.33;;
14472;SDS011;7322;50.872;4.386;2022-09-09T08:41:12;8.60;;;2.47;;
14472;SDS011;7322;50.872;4.386;2022-09-09T08:44:03;7.73;;;2.87;;
14472;SDS011;7322;50.872;4.386;2022-09-09T08:46:35;9.03;;;2.33;;
14472;SDS011;7322;50.872;4.386;2022-09-09T08:49:13;8.67;;;2.30;;
14472;SDS011;7322;50.872;4.386;2022-09-09T08:51:50;8.50;;;2.50;;
14472;SDS011;7322;50.872;4.386;2022-09-09T08:54:22;8.80;;;2.20;;
14472;SDS011;7322;50.872;4.386;2022-09-09T08:56:51;9.70;;;2.80;;
14472;SDS011;7322;50.872;4.386;2022-09-09T08:59:18;7.17;;;2.47;;
14472;SDS011;7322;50.872;4.386;2022-09-09T09:01:54;8.57;;;2.73;;
14472;SDS011;7322;50.872;4.386;2022-09-09T09:04:33;9.47;;;3.17;;
14472;SDS011;7322;50.872;4.386;2022-09-09T09:07:13;7.57;;;2.60;;
14472;SDS011;7322;50.872;4.386;2022-09-09T09:09:52;13.70;;;4.20;;
14472;SDS011;7322;50.872;4.386;2022-09-09T09:12:29;10.40;;;3.03;;
14472;SDS011;7322;50.872;4.386;2022-09-09T09:15:01;10.57;;;2.37;;
14472;SDS011;7322;50.872;4.386;2022-09-09T09:17:37;10.27;;;2.40;;
14472;SDS011;7322;50.872;4.386;2022-09-09T09:20:05;10.27;;;2.70;;
14472;SDS011;7322;50.872;4.386;2022-09-09T09:22:41;9.97;;;2.70;;
14472;SDS011;7322;50.872;4.386;2022-09-09T09:25:18;6.70;;;2.27;;
14472;SDS011;7322;50.872;4.386;2022-09-09T09:27:49;10.97;;;2.93;;
14472;SDS011;7322;50.872;4.386;2022-09-09T09:30:24;9.50;;;4.70;;
14472;SDS011;7322;50.872;4.386;2022-09-09T09:32:55;6.57;;;2.90;;
14472;SDS011;7322;50.872;4.386;2022-09-09T09:35:26;10.43;;;3.33;;
14472;SDS011;7322;50.872;4.386;2022-09-09T09:37:53;6.20;;;2.40;;
14472;SDS011;7322;50.872;4.386;2022-09-09T09:40:22;6.80;;;2.30;;
14472;SDS011;7322;50.872;4.386;2022-09-09T09:42:51;10.17;;;3.07;;
14472;SDS011;7322;50.872;4.386;2022-09-09T09:45:26;10.53;;;2.93;;
14472;SDS011;7322;50.872;4.386;2022-09-09T09:48:00;9.57;;;2.90;;
14472;SDS011;7322;50.872;4.386;2022-09-09T09:50:29;8.23;;;2.53;;
14472;SDS011;7322;50.872;4.386;2022-09-09T09:52:57;9.97;;;3.00;;
14472;SDS011;7322;50.872;4.386;2022-09-09T09:55:27;13.40;;;3.30;;
14472;SDS011;7322;50.872;4.386;2022-09-09T09:58:00;13.13;;;2.90;;
14472;SDS011;7322;50.872;4.386;2022-09-09T10:00:29;8.60;;;2.60;;
14472;SDS011;7322;50.872;4.386;2022-09-09T10:02:59;9.30;;;2.93;;
14472;SDS011;7322;50.872;4.386;2022-09-09T10:05:27;6.87;;;2.50;;
14472;SDS011;7322;50.872;4.386;2022-09-09T10:08:01;7.13;;;2.67;;
14472;SDS011;7322;50.872;4.386;2022-09-09T10:10:34;11.67;;;3.10;;
14472;SDS011;7322;50.872;4.386;2022-09-09T10:13:09;10.10;;;2.60;;
14472;SDS011;7322;50.872;4.386;2022-09-09T10:15:42;7.43;;;2.77;;
14472;SDS011;7322;50.872;4.386;2022-09-09T10:18:19;7.63;;;2.23;;
14472;SDS011;7322;50.872;4.386;2022-09-09T10:20:58;8.17;;;2.67;;
14472;SDS011;7322;50.872;4.386;2022-09-09T10:23:35;9.63;;;2.67;;
14472;SDS011;7322;50.872;4.386;2022-09-09T10:26:31;10.27;;;2.77;;
14472;SDS011;7322;50.872;4.386;2022-09-09T10:32:06;9.63;;;2.40;;
14472;SDS011;7322;50.872;4.386;2022-09-09T10:34:49;10.63;;;2.40;;
14472;SDS011;7322;50.872;4.386;2022-09-09T10:37:26;6.63;;;2.20;;
14472;SDS011;7322;50.872;4.386;2022-09-09T10:40:15;6.87;;;2.57;;
14472;SDS011;7322;50.872;4.386;2022-09-09T10:42:58;7.77;;;2.43;;
14472;SDS011;7322;50.872;4.386;2022-09-09T10:45:35;10.03;;;2.67;;
14472;SDS011;7322;50.872;4.386;2022-09-09T10:51:13;6.90;;;2.53;;
14472;SDS011;7322;50.872;4.386;2022-09-09T10:53:56;6.27;;;2.27;;
14472;SDS011;7322;50.872;4.386;2022-09-09T10:56:35;8.07;;;2.53;;
14472;SDS011;7322;50.872;4.386;2022-09-09T10:59:04;9.57;;;2.83;;
14472;SDS011;7322;50.872;4.386;2022-09-09T11:01:37;7.40;;;2.47;;
14472;SDS011;7322;50.872;4.386;2022-09-09T11:04:10;6.57;;;2.40;;
14472;SDS011;7322;50.872;4.386;2022-09-09T11:06:43;11.20;;;2.57;;
14472;SDS011;7322;50.872;4.386;2022-09-09T11:09:15;7.63;;;2.83;;
14472;SDS011;7322;50.872;4.386;2022-09-09T11:11:46;6.50;;;2.20;;
14472;SDS011;7322;50.872;4.386;2022-09-09T11:14:21;7.03;;;2.20;;
14472;SDS011;7322;50.872;4.386;2022-09-09T11:16:56;7.93;;;2.23;;
14472;SDS011;7322;50.872;4.386;2022-09-09T11:19:27;7.17;;;2.00;;
14472;SDS011;7322;50.872;4.386;2022-09-09T11:22:00;7.50;;;2.30;;
14472;SDS011;7322;50.872;4.386;2022-09-09T11:24:31;6.70;;;1.90;;
14472;SDS011;7322;50.872;4.386;2022-09-09T11:27:15;8.70;;;3.20;;
14472;SDS011;7322;50.872;4.386;2022-09-09T11:30:13;7.40;;;2.23;;
14472;SDS011;7322;50.872;4.386;2022-09-09T11:33:03;6.37;;;2.30;;
14472;SDS011;7322;50.872;4.386;2022-09-09T11:36:06;8.27;;;2.50;;
14472;SDS011;7322;50.872;4.386;2022-09-09T11:38:44;6.43;;;2.40;;
14472;SDS011;7322;50.872;4.386;2022-09-09T11:41:13;5.60;;;1.90;;
14472;SDS011;7322;50.872;4.386;2022-09-09T11:43:42;7.20;;;2.00;;
14472;SDS011;7322;50.872;4.386;2022-09-09T11:46:13;6.87;;;2.20;;
14472;SDS011;7322;50.872;4.386;2022-09-09T11:48:42;5.17;;;2.17;;
14472;SDS011;7322;50.872;4.386;2022-09-09T11:51:13;8.60;;;2.50;;
14472;SDS011;7322;50.872;4.386;2022-09-09T11:53:54;6.73;;;2.13;;
14472;SDS011;7322;50.872;4.386;2022-09-09T11:56:30;5.67;;;2.10;;
14472;SDS011;7322;50.872;4.386;2022-09-09T11:58:59;6.90;;;2.00;;
14472;SDS011;7322;50.872;4.386;2022-09-09T12:01:33;7.30;;;2.30;;
14472;SDS011;7322;50.872;4.386;2022-09-09T12:04:06;7.67;;;2.27;;
14472;SDS011;7322;50.872;4.386;2022-09-09T12:06:43;7.77;;;3.10;;
14472;SDS011;7322;50.872;4.386;2022-09-09T12:09:32;6.27;;;2.23;;
14472;SDS011;7322;50.872;4.386;2022-09-09T12:12:24;7.70;;;2.20;;
14472;SDS011;7322;50.872;4.386;2022-09-09T12:14:59;7.20;;;2.07;;
14472;SDS011;7322;50.872;4.386;2022-09-09T12:18:01;10.13;;;2.50;;
14472;SDS011;7322;50.872;4.386;2022-09-09T12:20:34;6.93;;;2.60;;
14472;SDS011;7322;50.872;4.386;2022-09-09T12:23:07;6.43;;;2.23;;
14472;SDS011;7322;50.872;4.386;2022-09-09T12:26:01;7.70;;;2.17;;
14472;SDS011;7322;50.872;4.386;2022-09-09T12:28:40;5.60;;;2.00;;
14472;SDS011;7322;50.872;4.386;2022-09-09T12:31:17;6.43;;;2.07;;
14472;SDS011;7322;50.872;4.386;2022-09-09T12:33:51;6.43;;;2.17;;
14472;SDS011;7322;50.872;4.386;2022-09-09T12:36:18;7.37;;;2.10;;
14472;SDS011;7322;50.872;4.386;2022-09-09T12:38:48;7.10;;;2.30;;
14472;SDS011;7322;50.872;4.386;2022-09-09T12:41:20;5.27;;;2.20;;
14472;SDS011;7322;50.872;4.386;2022-09-09T12:43:48;5.83;;;2.23;;
14472;SDS011;7322;50.872;4.386;2022-09-09T12:46:20;7.77;;;2.20;;
14472;SDS011;7322;50.872;4.386;2022-09-09T12:48:54;5.33;;;1.90;;
14472;SDS011;7322;50.872;4.386;2022-09-09T12:51:23;5.17;;;1.70;;
14472;SDS011;7322;50.872;4.386;2022-09-09T12:53:53;5.43;;;2.20;;
14472;SDS011;7322;50.872;4.386;2022-09-09T12:56:22;6.27;;;1.60;;
14472;SDS011;7322;50.872;4.386;2022-09-09T12:58:52;5.40;;;2.20;;
14472;SDS011;7322;50.872;4.386;2022-09-09T13:01:22;6.40;;;2.17;;
14472;SDS011;7322;50.872;4.386;2022-09-09T13:03:51;3.93;;;1.50;;
14472;SDS011;7322;50.872;4.386;2022-09-09T13:06:21;5.47;;;1.63;;
14472;SDS011;7322;50.872;4.386;2022-09-09T13:08:50;3.97;;;1.60;;
14472;SDS011;7322;50.872;4.386;2022-09-09T13:11:19;4.47;;;1.53;;
14472;SDS011;7322;50.872;4.386;2022-09-09T13:13:50;4.57;;;1.70;;
14472;SDS011;7322;50.872;4.386;2022-09-09T13:16:20;4.93;;;2.10;;
14472;SDS011;7322;50.872;4.386;2022-09-09T13:18:51;4.63;;;1.40;;
14472;SDS011;7322;50.872;4.386;2022-09-09T13:21:36;3.67;;;1.50;;
14472;SDS011;7322;50.872;4.386;2022-09-09T13:24:22;6.03;;;1.70;;
14472;SDS011;7322;50.872;4.386;2022-09-09T13:27:01;4.40;;;1.80;;
14472;SDS011;7322;50.872;4.386;2022-09-09T13:29:31;5.53;;;2.10;;
14472;SDS011;7322;50.872;4.386;2022-09-09T13:32:03;7.13;;;1.93;;
14472;SDS011;7322;50.872;4.386;2022-09-09T13:34:33;3.53;;;1.80;;
14472;SDS011;7322;50.872;4.386;2022-09-09T13:37:05;4.23;;;1.70;;
14472;SDS011;7322;50.872;4.386;2022-09-09T13:39:33;4.50;;;2.10;;
14472;SDS011;7322;50.872;4.386;2022-09-09T13:42:03;3.67;;;1.50;;
14472;SDS011;7322;50.872;4.386;2022-09-09T13:44:34;5.73;;;1.80;;
14472;SDS011;7322;50.872;4.386;2022-09-09T13:47:17;4.23;;;1.53;;
14472;SDS011;7322;50.872;4.386;2022-09-09T13:49:45;5.47;;;1.60;;
14472;SDS011;7322;50.872;4.386;2022-09-09T13:52:20;5.30;;;1.73;;
14472;SDS011;7322;50.872;4.386;2022-09-09T13:54:54;5.13;;;1.70;;
14472;SDS011;7322;50.872;4.386;2022-09-09T13:57:23;3.57;;;1.63;;
14472;SDS011;7322;50.872;4.386;2022-09-09T13:59:54;3.60;;;1.30;;
14472;SDS011;7322;50.872;4.386;2022-09-09T14:02:27;3.00;;;1.43;;
14472;SDS011;7322;50.872;4.386;2022-09-09T14:07:49;6.73;;;1.90;;
14472;SDS011;7322;50.872;4.386;2022-09-09T14:13:16;3.17;;;1.20;;
14472;SDS011;7322;50.872;4.386;2022-09-09T14:15:44;4.20;;;1.77;;
14472;SDS011;7322;50.872;4.386;2022-09-09T14:18:13;4.27;;;1.70;;
14472;SDS011;7322;50.872;4.386;2022-09-09T14:20:42;3.97;;;1.53;;
14472;SDS011;7322;50.872;4.386;2022-09-09T14:23:12;2.53;;;1.53;;
14472;SDS011;7322;50.872;4.386;2022-09-09T14:25:40;5.30;;;2.03;;
14472;SDS011;7322;50.872;4.386;2022-09-09T14:28:11;4.77;;;1.90;;
14472;SDS011;7322;50.872;4.386;2022-09-09T14:30:39;6.33;;;1.83;;
14472;SDS011;7322;50.872;4.386;2022-09-09T14:33:08;4.97;;;1.90;;
14472;SDS011;7322;50.872;4.386;2022-09-09T14:35:37;4.50;;;1.70;;
14472;SDS011;7322;50.872;4.386;2022-09-09T14:38:05;4.83;;;1.90;;
14472;SDS011;7322;50.872;4.386;2022-09-09T14:40:35;6.33;;;1.70;;
14472;SDS011;7322;50.872;4.386;2022-09-09T14:43:04;5.27;;;2.30;;
14472;SDS011;7322;50.872;4.386;2022-09-09T14:45:32;4.70;;;2.03;;
14472;SDS011;7322;50.872;4.386;2022-09-09T14:47:59;4.37;;;1.93;;
14472;SDS011;7322;50.872;4.386;2022-09-09T14:50:26;7.00;;;2.07;;
14472;SDS011;7322;50.872;4.386;2022-09-09T14:52:54;5.40;;;1.90;;
14472;SDS011;7322;50.872;4.386;2022-09-09T14:55:21;4.80;;;1.77;;
14472;SDS011;7322;50.872;4.386;2022-09-09T14:57:49;4.43;;;2.13;;
14472;SDS011;7322;50.872;4.386;2022-09-09T15:00:16;5.47;;;1.63;;
14472;SDS011;7322;50.872;4.386;2022-09-09T15:02:43;6.00;;;1.90;;
14472;SDS011;7322;50.872;4.386;2022-09-09T15:05:10;8.43;;;2.27;;
14472;SDS011;7322;50.872;4.386;2022-09-09T15:07:37;3.87;;;1.83;;
14472;SDS011;7322;50.872;4.386;2022-09-09T15:10:06;5.17;;;1.60;;
14472;SDS011;7322;50.872;4.386;2022-09-09T15:12:34;5.83;;;2.30;;
14472;SDS011;7322;50.872;4.386;2022-09-09T15:15:03;4.00;;;1.83;;
14472;SDS011;7322;50.872;4.386;2022-09-09T15:17:31;4.97;;;2.20;;
14472;SDS011;7322;50.872;4.386;2022-09-09T15:19:58;5.63;;;1.90;;
14472;SDS011;7322;50.872;4.386;2022-09-09T15:22:24;6.47;;;2.07;;
14472;SDS011;7322;50.872;4.386;2022-09-09T15:27:25;5.83;;;2.00;;
14472;SDS011;7322;50.872;4.386;2022-09-09T15:29:52;4.33;;;1.87;;
14472;SDS011;7322;50.872;4.386;2022-09-09T15:32:20;8.63;;;2.33;;
14472;SDS011;7322;50.872;4.386;2022-09-09T15:34:48;7.43;;;2.33;;
14472;SDS011;7322;50.872;4.386;2022-09-09T15:37:16;6.87;;;2.67;;
14472;SDS011;7322;50.872;4.386;2022-09-09T15:39:44;6.07;;;1.67;;
14472;SDS011;7322;50.872;4.386;2022-09-09T15:42:11;5.97;;;2.03;;
14472;SDS011;7322;50.872;4.386;2022-09-09T15:44:38;3.87;;;1.90;;
14472;SDS011;7322;50.872;4.386;2022-09-09T15:47:07;7.00;;;1.87;;
14472;SDS011;7322;50.872;4.386;2022-09-09T15:49:38;6.00;;;2.27;;
14472;SDS011;7322;50.872;4.386;2022-09-09T15:52:05;8.00;;;2.33;;
14472;SDS011;7322;50.872;4.386;2022-09-09T15:54:35;6.87;;;1.93;;
14472;SDS011;7322;50.872;4.386;2022-09-09T15:57:04;5.23;;;2.13;;
14472;SDS011;7322;50.872;4.386;2022-09-09T15:59:34;4.87;;;1.87;;
14472;SDS011;7322;50.872;4.386;2022-09-09T16:02:02;4.70;;;1.93;;
14472;SDS011;7322;50.872;4.386;2022-09-09T16:04:30;5.50;;;2.23;;
14472;SDS011;7322;50.872;4.386;2022-09-09T16:07:01;5.57;;;2.10;;
14472;SDS011;7322;50.872;4.386;2022-09-09T16:09:30;6.07;;;2.40;;